sensor_id;sensor_type;location;lat;lon;timestamp;P1;durP1;ratioP1;P2;durP2;ratioP2
20230;SDS011;10274;49.022;9.338;2022-08-07T00:01:29;2.43;;;0.67;;
20230;SDS011;10274;49.022;9.338;2022-08-07T00:03:56;1.37;;;0.80;;
20230;SDS011;10274;49.022;9.338;2022-08-07T00:06:23;1.87;;;0.60;;
20230;SDS011;10274;49.022;9.338;2022-08-07T00:08:50;0.87;;;0.77;;
20230;SDS011;10274;49.022;9.338;2022-08-07T00:11:17;3.27;;;0.80;;
20230;SDS011;10274;49.022;9.338;2022-08-07T00:13:44;2.10;;;0.70;;
20230;SDS011;10274;49.022;9.338;2022-08-07T00:16:11;1.90;;;0.80;;
20230;SDS011;10274;49.022;9.338;2022-08-07T00:18:40;1.20;;;0.60;;
20230;SDS011;10274;49.022;9.338;2022-08-07T00:21:07;2.60;;;0.80;;
20230;SDS011;10274;49.022;9.338;2022-08-07T00:23:35;2.70;;;1.00;;
20230;SDS011;10274;49.022;9.338;2022-08-07T00:26:04;2.30;;;0.60;;
20230;SDS011;10274;49.022;9.338;2022-08-07T00:28:33;1.30;;;0.80;;
20230;SDS011;10274;49.022;9.338;2022-08-07T00:31:00;1.10;;;0.80;;
20230;SDS011;10274;49.022;9.338;2022-08-07T00:33:28;1.13;;;0.83;;
20230;SDS011;10274;49.022;9.338;2022-08-07T00:35:56;2.27;;;1.20;;
20230;SDS011;10274;49.022;9.338;2022-08-07T00:38:24;2.43;;;0.87;;
20230;SDS011;10274;49.022;9.338;2022-08-07T00:40:50;1.20;;;0.77;;
20230;SDS011;10274;49.022;9.338;2022-08-07T00:43:17;1.47;;;0.93;;
20230;SDS011;10274;49.022;9.338;2022-08-07T00:45:44;1.83;;;0.87;;
20230;SDS011;10274;49.022;9.338;2022-08-07T00:48:12;3.40;;;0.70;;
20230;SDS011;10274;49.022;9.338;2022-08-07T00:50:40;1.93;;;0.90;;
20230;SDS011;10274;49.022;9.338;2022-08-07T00:53:08;1.87;;;1.03;;
20230;SDS011;10274;49.022;9.338;2022-08-07T00:55:35;1.20;;;0.70;;
20230;SDS011;10274;49.022;9.338;2022-08-07T00:58:02;4.90;;;0.97;;
20230;SDS011;10274;49.022;9.338;2022-08-07T01:00:29;1.43;;;0.80;;
20230;SDS011;10274;49.022;9.338;2022-08-07T01:02:56;1.80;;;0.77;;
20230;SDS011;10274;49.022;9.338;2022-08-07T01:05:23;1.93;;;0.90;;
20230;SDS011;10274;49.022;9.338;2022-08-07T01:07:51;4.53;;;0.90;;
20230;SDS011;10274;49.022;9.338;2022-08-07T01:10:20;0.73;;;0.67;;
20230;SDS011;10274;49.022;9.338;2022-08-07T01:12:46;1.00;;;0.87;;
20230;SDS011;10274;49.022;9.338;2022-08-07T01:15:14;1.27;;;1.00;;
20230;SDS011;10274;49.022;9.338;2022-08-07T01:17:41;1.67;;;1.10;;
20230;SDS011;10274;49.022;9.338;2022-08-07T01:20:10;1.27;;;0.80;;
20230;SDS011;10274;49.022;9.338;2022-08-07T01:22:40;2.33;;;0.80;;
20230;SDS011;10274;49.022;9.338;2022-08-07T01:25:09;1.17;;;1.00;;
20230;SDS011;10274;49.022;9.338;2022-08-07T01:27:36;1.27;;;0.70;;
20230;SDS011;10274;49.022;9.338;2022-08-07T01:30:04;1.63;;;1.00;;
20230;SDS011;10274;49.022;9.338;2022-08-07T01:32:31;1.73;;;1.00;;
20230;SDS011;10274;49.022;9.338;2022-08-07T01:34:58;2.13;;;1.10;;
20230;SDS011;10274;49.022;9.338;2022-08-07T01:37:26;2.43;;;0.87;;
20230;SDS011;10274;49.022;9.338;2022-08-07T01:39:55;1.67;;;1.10;;
20230;SDS011;10274;49.022;9.338;2022-08-07T01:42:23;1.63;;;0.80;;
20230;SDS011;10274;49.022;9.338;2022-08-07T01:44:51;1.67;;;0.90;;
20230;SDS011;10274;49.022;9.338;2022-08-07T01:47:18;2.37;;;0.80;;
20230;SDS011;10274;49.022;9.338;2022-08-07T01:49:45;1.63;;;0.87;;
20230;SDS011;10274;49.022;9.338;2022-08-07T01:52:12;1.50;;;0.80;;
20230;SDS011;10274;49.022;9.338;2022-08-07T01:54:39;0.80;;;0.80;;
20230;SDS011;10274;49.022;9.338;2022-08-07T01:57:12;1.23;;;0.90;;
20230;SDS011;10274;49.022;9.338;2022-08-07T01:59:43;1.20;;;0.83;;
20230;SDS011;10274;49.022;9.338;2022-08-07T02:02:16;1.47;;;0.80;;
20230;SDS011;10274;49.022;9.338;2022-08-07T02:04:48;2.87;;;0.93;;
20230;SDS011;10274;49.022;9.338;2022-08-07T02:07:19;2.60;;;1.60;;
20230;SDS011;10274;49.022;9.338;2022-08-07T02:09:49;0.83;;;0.83;;
20230;SDS011;10274;49.022;9.338;2022-08-07T02:12:19;1.60;;;1.13;;
20230;SDS011;10274;49.022;9.338;2022-08-07T02:14:49;1.33;;;0.90;;
20230;SDS011;10274;49.022;9.338;2022-08-07T02:17:18;1.50;;;1.00;;
20230;SDS011;10274;49.022;9.338;2022-08-07T02:19:46;3.27;;;0.93;;
20230;SDS011;10274;49.022;9.338;2022-08-07T02:22:15;1.40;;;0.97;;
20230;SDS011;10274;49.022;9.338;2022-08-07T02:24:44;0.73;;;0.73;;
20230;SDS011;10274;49.022;9.338;2022-08-07T02:27:13;1.33;;;0.93;;
20230;SDS011;10274;49.022;9.338;2022-08-07T02:29:44;0.70;;;0.70;;
20230;SDS011;10274;49.022;9.338;2022-08-07T02:32:13;2.23;;;0.90;;
20230;SDS011;10274;49.022;9.338;2022-08-07T02:34:41;1.07;;;1.00;;
20230;SDS011;10274;49.022;9.338;2022-08-07T02:37:10;1.90;;;0.93;;
20230;SDS011;10274;49.022;9.338;2022-08-07T02:39:38;1.27;;;1.10;;
20230;SDS011;10274;49.022;9.338;2022-08-07T02:42:07;0.90;;;0.90;;
20230;SDS011;10274;49.022;9.338;2022-08-07T02:44:35;1.20;;;1.10;;
20230;SDS011;10274;49.022;9.338;2022-08-07T02:47:06;1.63;;;1.10;;
20230;SDS011;10274;49.022;9.338;2022-08-07T02:49:34;2.47;;;1.23;;
20230;SDS011;10274;49.022;9.338;2022-08-07T02:52:02;1.17;;;0.90;;
20230;SDS011;10274;49.022;9.338;2022-08-07T02:54:33;1.27;;;0.90;;
20230;SDS011;10274;49.022;9.338;2022-08-07T02:57:02;1.10;;;1.00;;
20230;SDS011;10274;49.022;9.338;2022-08-07T02:59:30;0.93;;;0.83;;
20230;SDS011;10274;49.022;9.338;2022-08-07T03:01:59;2.30;;;1.10;;
20230;SDS011;10274;49.022;9.338;2022-08-07T03:04:27;1.40;;;1.20;;
20230;SDS011;10274;49.022;9.338;2022-08-07T03:06:55;2.07;;;1.23;;
20230;SDS011;10274;49.022;9.338;2022-08-07T03:09:24;1.50;;;1.10;;
20230;SDS011;10274;49.022;9.338;2022-08-07T03:11:52;1.40;;;1.00;;
20230;SDS011;10274;49.022;9.338;2022-08-07T03:14:19;2.57;;;1.60;;
20230;SDS011;10274;49.022;9.338;2022-08-07T03:16:47;1.57;;;1.37;;
20230;SDS011;10274;49.022;9.338;2022-08-07T03:19:13;3.17;;;1.53;;
20230;SDS011;10274;49.022;9.338;2022-08-07T03:21:41;2.03;;;1.57;;
20230;SDS011;10274;49.022;9.338;2022-08-07T03:24:08;2.20;;;1.60;;
20230;SDS011;10274;49.022;9.338;2022-08-07T03:26:35;2.43;;;1.87;;
20230;SDS011;10274;49.022;9.338;2022-08-07T03:29:04;2.27;;;1.80;;
20230;SDS011;10274;49.022;9.338;2022-08-07T03:31:32;2.00;;;1.80;;
20230;SDS011;10274;49.022;9.338;2022-08-07T03:34:00;1.80;;;1.60;;
20230;SDS011;10274;49.022;9.338;2022-08-07T03:36:28;1.80;;;1.63;;
20230;SDS011;10274;49.022;9.338;2022-08-07T03:39:00;2.30;;;2.10;;
20230;SDS011;10274;49.022;9.338;2022-08-07T03:41:29;2.33;;;2.13;;
20230;SDS011;10274;49.022;9.338;2022-08-07T03:43:57;3.53;;;2.50;;
20230;SDS011;10274;49.022;9.338;2022-08-07T03:46:24;3.70;;;1.90;;
20230;SDS011;10274;49.022;9.338;2022-08-07T03:48:52;2.77;;;2.13;;
20230;SDS011;10274;49.022;9.338;2022-08-07T03:51:20;2.30;;;2.10;;
20230;SDS011;10274;49.022;9.338;2022-08-07T03:53:47;2.40;;;2.20;;
20230;SDS011;10274;49.022;9.338;2022-08-07T03:56:18;2.90;;;2.23;;
20230;SDS011;10274;49.022;9.338;2022-08-07T03:58:46;3.97;;;2.00;;
20230;SDS011;10274;49.022;9.338;2022-08-07T04:01:13;2.40;;;2.00;;
20230;SDS011;10274;49.022;9.338;2022-08-07T04:03:41;1.97;;;1.80;;
20230;SDS011;10274;49.022;9.338;2022-08-07T04:06:09;4.13;;;2.37;;
20230;SDS011;10274;49.022;9.338;2022-08-07T04:08:36;2.80;;;2.50;;
20230;SDS011;10274;49.022;9.338;2022-08-07T04:11:05;3.07;;;2.10;;
20230;SDS011;10274;49.022;9.338;2022-08-07T04:13:34;2.57;;;2.37;;
20230;SDS011;10274;49.022;9.338;2022-08-07T04:16:01;3.63;;;2.10;;
20230;SDS011;10274;49.022;9.338;2022-08-07T04:18:29;3.43;;;1.90;;
20230;SDS011;10274;49.022;9.338;2022-08-07T04:20:55;2.53;;;1.83;;
20230;SDS011;10274;49.022;9.338;2022-08-07T04:23:23;3.17;;;2.67;;
20230;SDS011;10274;49.022;9.338;2022-08-07T04:25:50;3.57;;;2.07;;
20230;SDS011;10274;49.022;9.338;2022-08-07T04:28:18;2.97;;;1.93;;
20230;SDS011;10274;49.022;9.338;2022-08-07T04:30:47;2.80;;;2.30;;
20230;SDS011;10274;49.022;9.338;2022-08-07T04:33:15;3.27;;;2.17;;
20230;SDS011;10274;49.022;9.338;2022-08-07T04:35:43;4.37;;;2.40;;
20230;SDS011;10274;49.022;9.338;2022-08-07T04:38:11;3.53;;;2.50;;
20230;SDS011;10274;49.022;9.338;2022-08-07T04:40:39;4.53;;;2.40;;
20230;SDS011;10274;49.022;9.338;2022-08-07T04:43:07;3.90;;;2.67;;
20230;SDS011;10274;49.022;9.338;2022-08-07T04:45:37;3.53;;;2.77;;
20230;SDS011;10274;49.022;9.338;2022-08-07T04:48:11;5.10;;;2.77;;
20230;SDS011;10274;49.022;9.338;2022-08-07T04:50:44;6.40;;;2.73;;
20230;SDS011;10274;49.022;9.338;2022-08-07T04:53:19;5.50;;;3.30;;
20230;SDS011;10274;49.022;9.338;2022-08-07T04:55:50;4.73;;;2.83;;
20230;SDS011;10274;49.022;9.338;2022-08-07T04:58:23;4.10;;;2.90;;
20230;SDS011;10274;49.022;9.338;2022-08-07T05:00:57;5.60;;;3.13;;
20230;SDS011;10274;49.022;9.338;2022-08-07T05:03:30;3.07;;;2.77;;
20230;SDS011;10274;49.022;9.338;2022-08-07T05:06:06;2.63;;;2.43;;
20230;SDS011;10274;49.022;9.338;2022-08-07T05:08:39;13.33;;;2.83;;
20230;SDS011;10274;49.022;9.338;2022-08-07T05:11:12;3.10;;;2.77;;
20230;SDS011;10274;49.022;9.338;2022-08-07T05:13:43;4.47;;;2.93;;
20230;SDS011;10274;49.022;9.338;2022-08-07T05:16:14;4.93;;;4.40;;
20230;SDS011;10274;49.022;9.338;2022-08-07T05:18:46;6.23;;;4.10;;
20230;SDS011;10274;49.022;9.338;2022-08-07T05:21:18;4.67;;;4.27;;
20230;SDS011;10274;49.022;9.338;2022-08-07T05:23:49;6.07;;;5.20;;
20230;SDS011;10274;49.022;9.338;2022-08-07T05:26:21;6.87;;;4.57;;
20230;SDS011;10274;49.022;9.338;2022-08-07T05:28:50;5.40;;;4.47;;
20230;SDS011;10274;49.022;9.338;2022-08-07T05:31:19;6.90;;;4.80;;
20230;SDS011;10274;49.022;9.338;2022-08-07T05:33:49;4.67;;;4.27;;
20230;SDS011;10274;49.022;9.338;2022-08-07T05:36:17;5.90;;;4.50;;
20230;SDS011;10274;49.022;9.338;2022-08-07T05:38:45;4.83;;;4.33;;
20230;SDS011;10274;49.022;9.338;2022-08-07T05:41:13;5.27;;;4.77;;
20230;SDS011;10274;49.022;9.338;2022-08-07T05:43:41;4.83;;;4.23;;
20230;SDS011;10274;49.022;9.338;2022-08-07T05:46:08;5.30;;;4.80;;
20230;SDS011;10274;49.022;9.338;2022-08-07T05:48:36;6.27;;;4.57;;
20230;SDS011;10274;49.022;9.338;2022-08-07T05:51:05;4.83;;;4.43;;
20230;SDS011;10274;49.022;9.338;2022-08-07T05:53:33;4.60;;;3.70;;
20230;SDS011;10274;49.022;9.338;2022-08-07T05:56:00;4.87;;;4.10;;
20230;SDS011;10274;49.022;9.338;2022-08-07T05:58:29;4.40;;;3.50;;
20230;SDS011;10274;49.022;9.338;2022-08-07T06:00:56;4.30;;;3.80;;
20230;SDS011;10274;49.022;9.338;2022-08-07T06:03:24;6.93;;;4.17;;
20230;SDS011;10274;49.022;9.338;2022-08-07T06:05:54;7.03;;;3.50;;
20230;SDS011;10274;49.022;9.338;2022-08-07T06:08:22;4.53;;;3.30;;
20230;SDS011;10274;49.022;9.338;2022-08-07T06:10:50;4.97;;;3.20;;
20230;SDS011;10274;49.022;9.338;2022-08-07T06:13:17;4.23;;;2.87;;
20230;SDS011;10274;49.022;9.338;2022-08-07T06:15:44;3.33;;;2.80;;
20230;SDS011;10274;49.022;9.338;2022-08-07T06:18:14;5.57;;;2.90;;
20230;SDS011;10274;49.022;9.338;2022-08-07T06:20:42;5.30;;;2.73;;
20230;SDS011;10274;49.022;9.338;2022-08-07T06:23:09;2.90;;;2.70;;
20230;SDS011;10274;49.022;9.338;2022-08-07T06:25:38;3.23;;;2.80;;
20230;SDS011;10274;49.022;9.338;2022-08-07T06:28:06;2.77;;;2.40;;
20230;SDS011;10274;49.022;9.338;2022-08-07T06:30:34;3.40;;;2.30;;
20230;SDS011;10274;49.022;9.338;2022-08-07T06:33:02;3.07;;;2.40;;
20230;SDS011;10274;49.022;9.338;2022-08-07T06:35:29;4.10;;;2.33;;
20230;SDS011;10274;49.022;9.338;2022-08-07T06:37:56;3.47;;;2.00;;
20230;SDS011;10274;49.022;9.338;2022-08-07T06:40:23;2.83;;;1.90;;
20230;SDS011;10274;49.022;9.338;2022-08-07T06:42:51;3.43;;;2.03;;
20230;SDS011;10274;49.022;9.338;2022-08-07T06:45:19;2.47;;;1.90;;
20230;SDS011;10274;49.022;9.338;2022-08-07T06:47:47;2.10;;;1.90;;
20230;SDS011;10274;49.022;9.338;2022-08-07T06:50:15;2.50;;;1.80;;
20230;SDS011;10274;49.022;9.338;2022-08-07T06:52:43;1.90;;;1.70;;
20230;SDS011;10274;49.022;9.338;2022-08-07T06:55:13;2.30;;;1.73;;
20230;SDS011;10274;49.022;9.338;2022-08-07T06:57:41;2.97;;;1.50;;
20230;SDS011;10274;49.022;9.338;2022-08-07T07:00:12;2.27;;;1.50;;
20230;SDS011;10274;49.022;9.338;2022-08-07T07:02:40;1.83;;;1.70;;
20230;SDS011;10274;49.022;9.338;2022-08-07T07:05:08;1.90;;;1.30;;
20230;SDS011;10274;49.022;9.338;2022-08-07T07:07:35;2.23;;;1.57;;
20230;SDS011;10274;49.022;9.338;2022-08-07T07:10:02;2.23;;;1.40;;
20230;SDS011;10274;49.022;9.338;2022-08-07T07:12:30;3.93;;;1.50;;
20230;SDS011;10274;49.022;9.338;2022-08-07T07:15:04;1.20;;;1.10;;
20230;SDS011;10274;49.022;9.338;2022-08-07T07:17:37;2.93;;;1.60;;
20230;SDS011;10274;49.022;9.338;2022-08-07T07:20:10;2.73;;;1.20;;
20230;SDS011;10274;49.022;9.338;2022-08-07T07:22:41;1.87;;;1.40;;
20230;SDS011;10274;49.022;9.338;2022-08-07T07:25:08;1.87;;;1.40;;
20230;SDS011;10274;49.022;9.338;2022-08-07T07:27:39;1.07;;;0.97;;
20230;SDS011;10274;49.022;9.338;2022-08-07T07:30:10;1.53;;;1.43;;
20230;SDS011;10274;49.022;9.338;2022-08-07T07:32:39;1.27;;;1.17;;
20230;SDS011;10274;49.022;9.338;2022-08-07T07:35:08;3.17;;;1.30;;
20230;SDS011;10274;49.022;9.338;2022-08-07T07:37:36;1.20;;;1.10;;
20230;SDS011;10274;49.022;9.338;2022-08-07T07:40:07;1.63;;;1.10;;
20230;SDS011;10274;49.022;9.338;2022-08-07T07:42:39;1.23;;;0.87;;
20230;SDS011;10274;49.022;9.338;2022-08-07T07:45:08;2.17;;;1.10;;
20230;SDS011;10274;49.022;9.338;2022-08-07T07:47:40;2.20;;;1.40;;
20230;SDS011;10274;49.022;9.338;2022-08-07T07:50:09;1.67;;;0.90;;
20230;SDS011;10274;49.022;9.338;2022-08-07T07:52:37;1.47;;;0.90;;
20230;SDS011;10274;49.022;9.338;2022-08-07T07:55:06;1.83;;;1.30;;
20230;SDS011;10274;49.022;9.338;2022-08-07T07:57:35;2.27;;;1.30;;
20230;SDS011;10274;49.022;9.338;2022-08-07T08:00:03;2.30;;;1.10;;
20230;SDS011;10274;49.022;9.338;2022-08-07T08:02:31;1.20;;;0.90;;
20230;SDS011;10274;49.022;9.338;2022-08-07T08:05:01;1.90;;;1.23;;
20230;SDS011;10274;49.022;9.338;2022-08-07T08:07:30;2.28;;;1.00;;
20230;SDS011;10274;49.022;9.338;2022-08-07T08:09:59;0.95;;;0.85;;
20230;SDS011;10274;49.022;9.338;2022-08-07T08:12:27;0.90;;;0.80;;
20230;SDS011;10274;49.022;9.338;2022-08-07T08:14:56;1.33;;;0.80;;
20230;SDS011;10274;49.022;9.338;2022-08-07T08:17:22;1.17;;;1.10;;
20230;SDS011;10274;49.022;9.338;2022-08-07T08:19:52;1.17;;;0.90;;
20230;SDS011;10274;49.022;9.338;2022-08-07T08:22:25;1.13;;;1.00;;
20230;SDS011;10274;49.022;9.338;2022-08-07T08:25:10;1.30;;;1.20;;
20230;SDS011;10274;49.022;9.338;2022-08-07T08:27:56;0.90;;;0.90;;
20230;SDS011;10274;49.022;9.338;2022-08-07T08:30:28;1.58;;;1.10;;
20230;SDS011;10274;49.022;9.338;2022-08-07T08:32:56;1.27;;;0.70;;
20230;SDS011;10274;49.022;9.338;2022-08-07T08:35:25;1.02;;;0.82;;
20230;SDS011;10274;49.022;9.338;2022-08-07T08:37:55;1.30;;;0.75;;
20230;SDS011;10274;49.022;9.338;2022-08-07T08:40:26;1.20;;;0.82;;
20230;SDS011;10274;49.022;9.338;2022-08-07T08:42:57;1.65;;;0.65;;
20230;SDS011;10274;49.022;9.338;2022-08-07T08:45:30;1.83;;;0.85;;
20230;SDS011;10274;49.022;9.338;2022-08-07T08:48:03;1.80;;;1.02;;
20230;SDS011;10274;49.022;9.338;2022-08-07T08:50:36;1.15;;;1.00;;
20230;SDS011;10274;49.022;9.338;2022-08-07T08:53:11;10.48;;;8.35;;
20230;SDS011;10274;49.022;9.338;2022-08-07T08:55:45;2.85;;;0.75;;
20230;SDS011;10274;49.022;9.338;2022-08-07T08:58:16;0.95;;;0.80;;
20230;SDS011;10274;49.022;9.338;2022-08-07T09:00:51;1.23;;;1.00;;
20230;SDS011;10274;49.022;9.338;2022-08-07T09:03:24;1.02;;;0.70;;
20230;SDS011;10274;49.022;9.338;2022-08-07T09:06:00;0.73;;;0.70;;
20230;SDS011;10274;49.022;9.338;2022-08-07T09:08:37;1.58;;;0.80;;
20230;SDS011;10274;49.022;9.338;2022-08-07T09:11:14;1.85;;;0.73;;
20230;SDS011;10274;49.022;9.338;2022-08-07T09:13:46;1.42;;;0.88;;
20230;SDS011;10274;49.022;9.338;2022-08-07T09:16:33;2.85;;;1.52;;
20230;SDS011;10274;49.022;9.338;2022-08-07T09:19:11;2.20;;;0.77;;
20230;SDS011;10274;49.022;9.338;2022-08-07T09:21:46;2.45;;;0.80;;
20230;SDS011;10274;49.022;9.338;2022-08-07T09:24:25;2.60;;;0.85;;
20230;SDS011;10274;49.022;9.338;2022-08-07T09:27:01;2.03;;;0.80;;
20230;SDS011;10274;49.022;9.338;2022-08-07T09:29:38;1.45;;;0.88;;
20230;SDS011;10274;49.022;9.338;2022-08-07T09:32:16;1.02;;;0.70;;
20230;SDS011;10274;49.022;9.338;2022-08-07T09:34:53;1.88;;;0.80;;
20230;SDS011;10274;49.022;9.338;2022-08-07T09:37:27;1.63;;;0.88;;
20230;SDS011;10274;49.022;9.338;2022-08-07T09:40:04;0.95;;;0.60;;
20230;SDS011;10274;49.022;9.338;2022-08-07T09:42:44;2.75;;;0.90;;
20230;SDS011;10274;49.022;9.338;2022-08-07T09:45:17;2.25;;;0.70;;
20230;SDS011;10274;49.022;9.338;2022-08-07T09:47:56;2.25;;;0.80;;
20230;SDS011;10274;49.022;9.338;2022-08-07T09:50:35;0.90;;;0.70;;
20230;SDS011;10274;49.022;9.338;2022-08-07T09:53:12;1.17;;;0.70;;
20230;SDS011;10274;49.022;9.338;2022-08-07T09:55:45;1.55;;;0.90;;
20230;SDS011;10274;49.022;9.338;2022-08-07T09:58:28;1.77;;;0.73;;
20230;SDS011;10274;49.022;9.338;2022-08-07T10:01:23;1.45;;;0.70;;
20230;SDS011;10274;49.022;9.338;2022-08-07T10:04:06;0.88;;;0.70;;
20230;SDS011;10274;49.022;9.338;2022-08-07T10:06:53;0.63;;;0.50;;
20230;SDS011;10274;49.022;9.338;2022-08-07T10:12:48;2.80;;;0.70;;
20230;SDS011;10274;49.022;9.338;2022-08-07T10:15:31;0.75;;;0.60;;
20230;SDS011;10274;49.022;9.338;2022-08-07T10:21:06;1.75;;;0.52;;
20230;SDS011;10274;49.022;9.338;2022-08-07T10:23:51;0.98;;;0.60;;
20230;SDS011;10274;49.022;9.338;2022-08-07T10:26:42;3.50;;;0.77;;
20230;SDS011;10274;49.022;9.338;2022-08-07T10:32:13;2.60;;;0.82;;
20230;SDS011;10274;49.022;9.338;2022-08-07T10:34:53;1.98;;;0.60;;
20230;SDS011;10274;49.022;9.338;2022-08-07T10:37:34;1.55;;;0.60;;
20230;SDS011;10274;49.022;9.338;2022-08-07T10:40:07;0.85;;;0.60;;
20230;SDS011;10274;49.022;9.338;2022-08-07T10:42:39;0.73;;;0.68;;
20230;SDS011;10274;49.022;9.338;2022-08-07T10:45:19;1.98;;;0.60;;
20230;SDS011;10274;49.022;9.338;2022-08-07T10:47:55;0.70;;;0.50;;
20230;SDS011;10274;49.022;9.338;2022-08-07T10:50:30;1.75;;;0.50;;
20230;SDS011;10274;49.022;9.338;2022-08-07T10:53:06;1.10;;;0.70;;
20230;SDS011;10274;49.022;9.338;2022-08-07T10:55:44;1.23;;;0.70;;
20230;SDS011;10274;49.022;9.338;2022-08-07T10:58:22;1.77;;;0.60;;
20230;SDS011;10274;49.022;9.338;2022-08-07T11:01:16;0.43;;;0.40;;
20230;SDS011;10274;49.022;9.338;2022-08-07T11:03:54;1.40;;;0.43;;
20230;SDS011;10274;49.022;9.338;2022-08-07T11:06:25;0.70;;;0.52;;
20230;SDS011;10274;49.022;9.338;2022-08-07T11:08:57;0.70;;;0.52;;
20230;SDS011;10274;49.022;9.338;2022-08-07T11:11:28;0.63;;;0.57;;
20230;SDS011;10274;49.022;9.338;2022-08-07T11:14:01;1.67;;;0.60;;
20230;SDS011;10274;49.022;9.338;2022-08-07T11:16:35;0.90;;;0.60;;
20230;SDS011;10274;49.022;9.338;2022-08-07T11:19:08;1.80;;;0.77;;
20230;SDS011;10274;49.022;9.338;2022-08-07T11:21:41;1.83;;;0.60;;
20230;SDS011;10274;49.022;9.338;2022-08-07T11:24:15;1.90;;;0.70;;
20230;SDS011;10274;49.022;9.338;2022-08-07T11:26:48;0.40;;;0.40;;
20230;SDS011;10274;49.022;9.338;2022-08-07T11:29:21;0.98;;;0.60;;
20230;SDS011;10274;49.022;9.338;2022-08-07T11:31:57;2.05;;;0.60;;
20230;SDS011;10274;49.022;9.338;2022-08-07T11:34:32;0.82;;;0.60;;
20230;SDS011;10274;49.022;9.338;2022-08-07T11:37:05;0.50;;;0.50;;
20230;SDS011;10274;49.022;9.338;2022-08-07T11:39:46;0.55;;;0.40;;
20230;SDS011;10274;49.022;9.338;2022-08-07T11:42:25;1.38;;;0.55;;
20230;SDS011;10274;49.022;9.338;2022-08-07T11:45:07;1.10;;;0.73;;
20230;SDS011;10274;49.022;9.338;2022-08-07T11:47:47;1.05;;;0.65;;
20230;SDS011;10274;49.022;9.338;2022-08-07T11:50:26;0.93;;;0.60;;
20230;SDS011;10274;49.022;9.338;2022-08-07T11:53:02;0.98;;;0.57;;
20230;SDS011;10274;49.022;9.338;2022-08-07T11:55:53;1.92;;;0.70;;
20230;SDS011;10274;49.022;9.338;2022-08-07T11:58:36;0.88;;;0.70;;
20230;SDS011;10274;49.022;9.338;2022-08-07T12:01:13;0.70;;;0.70;;
20230;SDS011;10274;49.022;9.338;2022-08-07T12:04:05;0.95;;;0.68;;
20230;SDS011;10274;49.022;9.338;2022-08-07T12:06:55;1.35;;;0.70;;
20230;SDS011;10274;49.022;9.338;2022-08-07T12:09:27;0.75;;;0.75;;
20230;SDS011;10274;49.022;9.338;2022-08-07T12:12:02;1.15;;;0.60;;
20230;SDS011;10274;49.022;9.338;2022-08-07T12:14:34;0.50;;;0.50;;
20230;SDS011;10274;49.022;9.338;2022-08-07T12:17:09;1.08;;;0.73;;
20230;SDS011;10274;49.022;9.338;2022-08-07T12:19:44;1.58;;;0.50;;
20230;SDS011;10274;49.022;9.338;2022-08-07T12:22:16;1.80;;;0.60;;
20230;SDS011;10274;49.022;9.338;2022-08-07T12:24:50;4.90;;;1.60;;
20230;SDS011;10274;49.022;9.338;2022-08-07T12:27:41;0.50;;;0.50;;
20230;SDS011;10274;49.022;9.338;2022-08-07T12:30:13;0.98;;;0.73;;
20230;SDS011;10274;49.022;9.338;2022-08-07T12:32:42;1.67;;;0.70;;
20230;SDS011;10274;49.022;9.338;2022-08-07T12:35:15;0.98;;;0.73;;
20230;SDS011;10274;49.022;9.338;2022-08-07T12:37:45;1.65;;;0.73;;
20230;SDS011;10274;49.022;9.338;2022-08-07T12:40:15;1.02;;;0.60;;
20230;SDS011;10274;49.022;9.338;2022-08-07T12:42:45;1.08;;;0.57;;
20230;SDS011;10274;49.022;9.338;2022-08-07T12:45:16;0.77;;;0.70;;
20230;SDS011;10274;49.022;9.338;2022-08-07T12:47:48;0.63;;;0.63;;
20230;SDS011;10274;49.022;9.338;2022-08-07T12:50:26;1.15;;;0.52;;
20230;SDS011;10274;49.022;9.338;2022-08-07T12:52:59;1.33;;;0.70;;
20230;SDS011;10274;49.022;9.338;2022-08-07T12:55:30;1.45;;;0.75;;
20230;SDS011;10274;49.022;9.338;2022-08-07T12:58:02;1.25;;;0.80;;
20230;SDS011;10274;49.022;9.338;2022-08-07T13:00:33;1.13;;;0.77;;
20230;SDS011;10274;49.022;9.338;2022-08-07T13:03:19;1.65;;;0.60;;
20230;SDS011;10274;49.022;9.338;2022-08-07T13:08:55;2.47;;;0.77;;
20230;SDS011;10274;49.022;9.338;2022-08-07T13:11:33;1.10;;;0.80;;
20230;SDS011;10274;49.022;9.338;2022-08-07T13:14:08;1.00;;;0.70;;
20230;SDS011;10274;49.022;9.338;2022-08-07T13:16:44;1.92;;;0.70;;
20230;SDS011;10274;49.022;9.338;2022-08-07T13:19:20;0.60;;;0.60;;
20230;SDS011;10274;49.022;9.338;2022-08-07T13:21:55;1.05;;;0.85;;
20230;SDS011;10274;49.022;9.338;2022-08-07T13:24:29;0.80;;;0.80;;
20230;SDS011;10274;49.022;9.338;2022-08-07T13:27:08;2.47;;;1.00;;
20230;SDS011;10274;49.022;9.338;2022-08-07T13:29:41;1.90;;;0.73;;
20230;SDS011;10274;49.022;9.338;2022-08-07T13:32:14;0.82;;;0.60;;
20230;SDS011;10274;49.022;9.338;2022-08-07T13:34:47;1.25;;;0.70;;
20230;SDS011;10274;49.022;9.338;2022-08-07T13:37:23;1.10;;;0.63;;
20230;SDS011;10274;49.022;9.338;2022-08-07T13:39:55;0.77;;;0.77;;
20230;SDS011;10274;49.022;9.338;2022-08-07T13:42:30;1.50;;;0.73;;
20230;SDS011;10274;49.022;9.338;2022-08-07T13:44:58;3.00;;;0.77;;
20230;SDS011;10274;49.022;9.338;2022-08-07T13:47:28;0.65;;;0.65;;
20230;SDS011;10274;49.022;9.338;2022-08-07T13:49:56;1.42;;;0.85;;
20230;SDS011;10274;49.022;9.338;2022-08-07T13:52:27;1.27;;;0.75;;
20230;SDS011;10274;49.022;9.338;2022-08-07T13:54:55;1.83;;;0.98;;
20230;SDS011;10274;49.022;9.338;2022-08-07T13:57:24;0.80;;;0.70;;
20230;SDS011;10274;49.022;9.338;2022-08-07T13:59:52;0.80;;;0.80;;
20230;SDS011;10274;49.022;9.338;2022-08-07T14:02:24;1.55;;;0.70;;
20230;SDS011;10274;49.022;9.338;2022-08-07T14:04:53;1.55;;;0.70;;
20230;SDS011;10274;49.022;9.338;2022-08-07T14:07:30;0.70;;;0.70;;
20230;SDS011;10274;49.022;9.338;2022-08-07T14:09:59;0.65;;;0.60;;
20230;SDS011;10274;49.022;9.338;2022-08-07T14:12:31;1.33;;;0.80;;
20230;SDS011;10274;49.022;9.338;2022-08-07T14:15:03;2.33;;;0.93;;
20230;SDS011;10274;49.022;9.338;2022-08-07T14:17:33;0.90;;;0.80;;
20230;SDS011;10274;49.022;9.338;2022-08-07T14:20:03;1.75;;;0.95;;
20230;SDS011;10274;49.022;9.338;2022-08-07T14:22:36;0.88;;;0.60;;
20230;SDS011;10274;49.022;9.338;2022-08-07T14:25:06;1.40;;;0.85;;
20230;SDS011;10274;49.022;9.338;2022-08-07T14:27:37;2.25;;;0.70;;
20230;SDS011;10274;49.022;9.338;2022-08-07T14:30:08;1.10;;;0.80;;
20230;SDS011;10274;49.022;9.338;2022-08-07T14:32:40;0.80;;;0.70;;
20230;SDS011;10274;49.022;9.338;2022-08-07T14:35:10;2.40;;;0.82;;
20230;SDS011;10274;49.022;9.338;2022-08-07T14:37:44;1.38;;;0.90;;
20230;SDS011;10274;49.022;9.338;2022-08-07T14:40:16;0.90;;;0.70;;
20230;SDS011;10274;49.022;9.338;2022-08-07T14:42:45;0.77;;;0.60;;
20230;SDS011;10274;49.022;9.338;2022-08-07T14:45:19;0.73;;;0.73;;
20230;SDS011;10274;49.022;9.338;2022-08-07T14:47:48;1.92;;;0.90;;
20230;SDS011;10274;49.022;9.338;2022-08-07T14:50:16;1.13;;;0.80;;
20230;SDS011;10274;49.022;9.338;2022-08-07T14:52:47;1.05;;;0.95;;
20230;SDS011;10274;49.022;9.338;2022-08-07T14:55:15;1.40;;;0.80;;
20230;SDS011;10274;49.022;9.338;2022-08-07T14:57:45;0.65;;;0.65;;
20230;SDS011;10274;49.022;9.338;2022-08-07T15:00:15;1.38;;;0.90;;
20230;SDS011;10274;49.022;9.338;2022-08-07T15:02:43;0.88;;;0.70;;
20230;SDS011;10274;49.022;9.338;2022-08-07T15:05:13;0.80;;;0.80;;
20230;SDS011;10274;49.022;9.338;2022-08-07T15:07:41;0.88;;;0.70;;
20230;SDS011;10274;49.022;9.338;2022-08-07T15:10:12;2.17;;;0.90;;
20230;SDS011;10274;49.022;9.338;2022-08-07T15:12:43;0.80;;;0.80;;
20230;SDS011;10274;49.022;9.338;2022-08-07T15:15:12;1.80;;;0.90;;
20230;SDS011;10274;49.022;9.338;2022-08-07T15:17:50;2.60;;;0.80;;
20230;SDS011;10274;49.022;9.338;2022-08-07T15:20:21;0.60;;;0.60;;
20230;SDS011;10274;49.022;9.338;2022-08-07T15:22:50;0.80;;;0.80;;
20230;SDS011;10274;49.022;9.338;2022-08-07T15:25:22;1.73;;;0.73;;